createdAt,value
2022-12-27T00:00:27.130Z,99.56
2022-12-27T00:02:54.056Z,99.66
2022-12-27T00:05:20.800Z,99.89
2022-12-27T00:07:47.502Z,99.88
2022-12-27T00:10:14.263Z,99.85
2022-12-27T00:12:40.976Z,99.90
2022-12-27T00:15:07.902Z,99.95
2022-12-27T00:17:34.632Z,99.93
2022-12-27T00:20:08.316Z,99.97
2022-12-27T00:22:39.351Z,99.86
2022-12-27T00:25:06.473Z,99.92
2022-12-27T00:27:33.128Z,99.90
2022-12-27T00:30:01.317Z,99.84
2022-12-27T00:32:28.054Z,99.96
2022-12-27T00:34:54.711Z,99.99
2022-12-27T00:37:21.580Z,99.93
2022-12-27T00:39:48.349Z,99.84
2022-12-27T00:42:15.079Z,99.88
2022-12-27T00:44:43.215Z,99.86
2022-12-27T00:47:10.315Z,99.94
2022-12-27T00:49:37.020Z,99.85
2022-12-27T00:52:03.895Z,99.91
2022-12-27T00:54:30.561Z,99.99
2022-12-27T00:56:57.256Z,99.97
2022-12-27T00:59:23.973Z,100.00
2022-12-27T01:01:50.832Z,99.99
2022-12-27T01:04:17.526Z,100.00
2022-12-27T01:06:44.705Z,100.00
2022-12-27T01:09:11.400Z,100.00
2022-12-27T01:11:39.716Z,100.00
2022-12-27T01:14:06.530Z,100.00
2022-12-27T01:16:33.851Z,100.00
2022-12-27T01:19:00.958Z,100.00
2022-12-27T01:21:30.562Z,100.00
2022-12-27T01:23:57.630Z,100.00
2022-12-27T01:26:24.661Z,100.00
2022-12-27T01:28:51.913Z,100.00
2022-12-27T01:31:23.063Z,100.00
2022-12-27T01:33:49.902Z,100.00
2022-12-27T01:36:17.621Z,100.00
2022-12-27T01:38:44.505Z,100.00
2022-12-27T01:42:08.752Z,100.00
2022-12-27T01:44:58.552Z,100.00
2022-12-27T01:47:34.126Z,100.00
2022-12-27T01:50:08.138Z,100.00
2022-12-27T01:52:46.578Z,100.00
2022-12-27T01:55:51.547Z,100.00
2022-12-27T01:58:25.284Z,100.00
2022-12-27T02:00:52.088Z,100.00
2022-12-27T02:03:27.493Z,100.00
2022-12-27T02:05:54.235Z,100.00
2022-12-27T02:08:24.096Z,100.00
2022-12-27T02:10:50.806Z,100.00
2022-12-27T02:13:17.563Z,100.00
2022-12-27T02:15:44.278Z,100.00
2022-12-27T02:18:10.940Z,100.00
2022-12-27T02:21:01.182Z,100.00
2022-12-27T02:24:04.471Z,100.00
2022-12-27T02:26:46.659Z,100.00
2022-12-27T02:29:38.999Z,100.00
2022-12-27T02:32:18.569Z,100.00
2022-12-27T02:34:48.499Z,100.00
2022-12-27T02:37:15.293Z,100.00
2022-12-27T02:39:45.545Z,100.00
2022-12-27T02:42:31.839Z,100.00
2022-12-27T02:45:17.863Z,100.00
2022-12-27T02:48:04.317Z,100.00
2022-12-27T02:51:14.831Z,100.00
2022-12-27T02:53:51.615Z,100.00
2022-12-27T02:56:54.764Z,100.00
2022-12-27T03:00:05.823Z,100.00
2022-12-27T03:03:01.103Z,100.00
2022-12-27T03:05:32.201Z,100.00
2022-12-27T03:08:03.102Z,100.00
2022-12-27T03:11:05.898Z,100.00
2022-12-27T03:14:05.776Z,100.00
2022-12-27T03:16:43.310Z,100.00
2022-12-27T03:19:13.682Z,100.00
2022-12-27T03:22:01.612Z,100.00
2022-12-27T03:24:48.563Z,100.00
2022-12-27T03:27:21.562Z,100.00
2022-12-27T03:30:08.982Z,100.00
2022-12-27T03:32:57.908Z,100.00
2022-12-27T03:35:24.666Z,100.00
2022-12-27T03:38:05.586Z,100.00
2022-12-27T03:41:04.349Z,100.00
2022-12-27T03:43:32.452Z,100.00
2022-12-27T03:46:34.643Z,100.00
2022-12-27T03:49:16.742Z,100.00
2022-12-27T03:52:30.060Z,100.00
2022-12-27T03:54:56.851Z,100.00
2022-12-27T03:57:24.021Z,100.00
2022-12-27T03:59:50.756Z,100.00
2022-12-27T04:02:17.474Z,100.00
2022-12-27T04:04:44.443Z,100.00
2022-12-27T04:07:12.502Z,100.00
2022-12-27T04:09:57.819Z,100.00
2022-12-27T04:12:43.219Z,100.00
2022-12-27T04:15:28.503Z,100.00
2022-12-27T04:18:13.882Z,100.00
2022-12-27T04:20:59.542Z,100.00
2022-12-27T04:23:44.685Z,100.00
2022-12-27T04:26:30.247Z,100.00
2022-12-27T04:29:15.658Z,100.00
2022-12-27T04:32:00.948Z,100.00
2022-12-27T04:34:45.845Z,100.00
2022-12-27T04:37:21.588Z,100.00
2022-12-27T04:40:06.992Z,100.00
2022-12-27T04:42:52.273Z,100.00
2022-12-27T04:45:37.569Z,100.00
2022-12-27T04:48:23.557Z,100.00
2022-12-27T04:51:08.937Z,100.00
2022-12-27T04:53:54.358Z,100.00
2022-12-27T04:56:21.092Z,100.00
2022-12-27T04:59:06.458Z,100.00
2022-12-27T05:01:51.791Z,100.00
2022-12-27T05:04:18.599Z,100.00
2022-12-27T05:06:45.300Z,100.00
2022-12-27T05:09:30.702Z,100.00
2022-12-27T05:12:15.903Z,100.00
2022-12-27T05:14:42.635Z,100.00
2022-12-27T05:17:09.537Z,100.00
2022-12-27T05:19:36.188Z,100.00
2022-12-27T05:22:21.526Z,100.00
2022-12-27T05:25:07.091Z,100.00
2022-12-27T05:27:33.856Z,100.00
2022-12-27T05:30:01.371Z,100.00
2022-12-27T05:32:28.069Z,100.00
2022-12-27T05:34:54.740Z,100.00
2022-12-27T05:37:21.444Z,100.00
2022-12-27T05:39:48.276Z,100.00
2022-12-27T05:42:14.880Z,100.00
2022-12-27T05:44:41.586Z,100.00
2022-12-27T05:47:08.260Z,100.00
2022-12-27T05:49:35.989Z,100.00
2022-12-27T05:52:02.727Z,100.00
2022-12-27T05:54:29.479Z,100.00
2022-12-27T05:56:56.137Z,100.00
2022-12-27T05:59:22.869Z,100.00
2022-12-27T06:01:49.744Z,100.00
2022-12-27T06:04:16.590Z,100.00
2022-12-27T06:06:43.432Z,100.00
2022-12-27T06:09:10.419Z,100.00
2022-12-27T06:11:38.207Z,100.00
2022-12-27T06:14:04.916Z,100.00
2022-12-27T06:16:31.602Z,100.00
2022-12-27T06:18:58.279Z,100.00
2022-12-27T06:21:25.052Z,100.00
2022-12-27T06:23:51.740Z,100.00
2022-12-27T06:26:26.385Z,100.00
2022-12-27T06:28:54.834Z,100.00
2022-12-27T06:31:21.721Z,100.00
2022-12-27T06:33:49.050Z,100.00
2022-12-27T06:36:17.557Z,100.00
2022-12-27T06:38:44.266Z,100.00
2022-12-27T06:41:12.936Z,100.00
2022-12-27T06:43:39.896Z,100.00
2022-12-27T06:46:17.077Z,100.00
2022-12-27T06:48:45.908Z,100.00
2022-12-27T06:51:13.199Z,100.00
2022-12-27T06:53:39.985Z,100.00
2022-12-27T06:56:12.200Z,100.00
2022-12-27T06:58:39.124Z,100.00
2022-12-27T07:01:13.149Z,100.00
2022-12-27T07:03:40.115Z,100.00
2022-12-27T07:06:07.215Z,100.00
2022-12-27T07:08:35.001Z,100.00
2022-12-27T07:11:06.473Z,100.00
2022-12-27T07:13:34.256Z,100.00
2022-12-27T07:16:00.891Z,100.00
2022-12-27T07:18:27.592Z,100.00
2022-12-27T07:20:54.276Z,100.00
2022-12-27T07:23:20.956Z,100.00
2022-12-27T07:25:47.700Z,100.00
2022-12-27T07:28:14.465Z,100.00
2022-12-27T07:30:41.955Z,100.00
2022-12-27T07:33:08.918Z,100.00
2022-12-27T07:35:38.473Z,100.00
2022-12-27T07:38:08.291Z,100.00
2022-12-27T07:40:36.932Z,100.00
2022-12-27T07:43:03.876Z,100.00
2022-12-27T07:45:30.573Z,100.00
2022-12-27T07:47:57.265Z,100.00
2022-12-27T07:50:23.990Z,100.00
2022-12-27T07:52:50.822Z,100.00
2022-12-27T07:55:17.423Z,100.00
2022-12-27T07:57:44.127Z,100.00
2022-12-27T08:00:11.406Z,100.00
2022-12-27T08:02:43.561Z,100.00
2022-12-27T08:05:12.185Z,100.00
2022-12-27T08:07:38.942Z,100.00
2022-12-27T08:10:06.028Z,100.00
2022-12-27T08:12:32.681Z,100.00
2022-12-27T08:14:59.381Z,100.00
2022-12-27T08:17:29.425Z,100.00
2022-12-27T08:19:56.497Z,100.00
2022-12-27T08:22:23.790Z,100.00
2022-12-27T08:24:51.157Z,100.00
2022-12-27T08:27:22.349Z,100.00
2022-12-27T08:29:49.097Z,100.00
2022-12-27T08:32:15.893Z,100.00
2022-12-27T08:34:42.495Z,100.00
2022-12-27T08:37:09.206Z,100.00
2022-12-27T08:39:35.961Z,100.00
2022-12-27T08:42:02.683Z,100.00
2022-12-27T08:44:29.543Z,100.00
2022-12-27T08:46:56.182Z,100.00
2022-12-27T08:49:23.027Z,100.00
2022-12-27T08:51:49.763Z,100.00
2022-12-27T08:54:16.458Z,100.00
2022-12-27T08:56:43.150Z,100.00
2022-12-27T08:59:09.838Z,100.00
2022-12-27T09:01:36.725Z,100.00
2022-12-27T09:04:03.632Z,100.00
2022-12-27T09:06:30.390Z,100.00
2022-12-27T09:08:57.381Z,100.00
2022-12-27T09:11:26.273Z,100.00
2022-12-27T09:13:53.895Z,100.00
2022-12-27T09:16:24.395Z,100.00
2022-12-27T09:18:52.483Z,100.00
2022-12-27T09:21:19.760Z,100.00
2022-12-27T09:23:46.655Z,100.00
2022-12-27T09:26:14.098Z,100.00
2022-12-27T09:28:41.224Z,100.00
2022-12-27T09:31:08.952Z,100.00
2022-12-27T09:33:35.708Z,100.00
2022-12-27T09:36:06.131Z,100.00
2022-12-27T09:38:32.823Z,100.00
2022-12-27T09:41:00.941Z,100.00
2022-12-27T09:44:06.151Z,100.00
2022-12-27T09:46:49.926Z,100.00
2022-12-27T09:52:00.608Z,100.00
2022-12-27T09:54:52.980Z,100.00
2022-12-27T09:57:24.553Z,100.00
2022-12-27T09:59:54.137Z,100.00
2022-12-27T10:02:25.617Z,100.00
2022-12-27T10:05:19.155Z,100.00
2022-12-27T10:07:46.814Z,100.00
2022-12-27T10:10:44.547Z,100.00
2022-12-27T10:13:20.499Z,100.00
2022-12-27T10:16:05.433Z,100.00
2022-12-27T10:19:06.924Z,100.00
2022-12-27T10:21:35.000Z,100.00
2022-12-27T10:24:10.390Z,100.00
2022-12-27T10:26:37.139Z,100.00
2022-12-27T10:29:25.176Z,100.00
2022-12-27T10:31:51.897Z,100.00
2022-12-27T10:34:24.233Z,100.00
2022-12-27T10:36:52.412Z,100.00
2022-12-27T10:39:24.160Z,100.00
2022-12-27T10:42:01.387Z,100.00
2022-12-27T10:44:28.809Z,100.00
2022-12-27T10:46:55.637Z,100.00
2022-12-27T10:49:23.747Z,100.00
2022-12-27T10:51:54.160Z,100.00
2022-12-27T10:54:28.392Z,100.00
2022-12-27T10:56:55.445Z,100.00
2022-12-27T10:59:28.478Z,100.00
2022-12-27T11:02:04.435Z,100.00
2022-12-27T11:04:31.391Z,100.00
2022-12-27T11:07:04.342Z,100.00
2022-12-27T11:09:31.043Z,100.00
2022-12-27T11:12:15.545Z,100.00
2022-12-27T11:14:58.658Z,100.00
2022-12-27T11:17:46.788Z,100.00
2022-12-27T11:20:43.769Z,100.00
2022-12-27T11:23:10.426Z,100.00
2022-12-27T11:25:55.938Z,100.00
2022-12-27T11:28:23.945Z,100.00
2022-12-27T11:31:01.566Z,100.00
2022-12-27T11:33:46.647Z,100.00
2022-12-27T11:36:13.639Z,100.00
2022-12-27T11:38:43.395Z,100.00
2022-12-27T11:41:15.247Z,100.00
2022-12-27T11:43:49.515Z,100.00
2022-12-27T11:46:24.126Z,100.00
2022-12-27T11:48:54.153Z,100.00
2022-12-27T11:51:42.553Z,100.00
2022-12-27T11:54:15.096Z,100.00
2022-12-27T11:56:45.167Z,100.00
2022-12-27T11:59:42.863Z,100.00
2022-12-27T12:02:24.687Z,100.00
2022-12-27T12:05:09.719Z,100.00
2022-12-27T12:08:04.438Z,100.00
2022-12-27T12:11:16.248Z,100.00
2022-12-27T12:13:49.074Z,100.00
2022-12-27T12:16:36.888Z,100.00
2022-12-27T12:19:08.776Z,100.00
2022-12-27T12:22:06.071Z,100.00
2022-12-27T12:24:35.813Z,100.00
2022-12-27T12:27:22.332Z,100.00
2022-12-27T12:30:11.778Z,100.00
2022-12-27T12:32:54.366Z,100.00
2022-12-27T12:35:27.881Z,100.00
2022-12-27T12:38:22.912Z,100.00
2022-12-27T12:40:52.307Z,100.00
2022-12-27T12:43:43.422Z,100.00
2022-12-27T12:46:47.678Z,100.00
2022-12-27T12:49:18.643Z,100.00
2022-12-27T12:52:03.924Z,100.00
2022-12-27T12:54:36.633Z,100.00
2022-12-27T12:57:12.349Z,100.00
2022-12-27T13:00:09.537Z,100.00
2022-12-27T13:03:04.305Z,100.00
2022-12-27T13:05:42.990Z,100.00
2022-12-27T13:08:27.885Z,100.00
2022-12-27T13:11:05.273Z,100.00
2022-12-27T13:14:02.888Z,100.00
2022-12-27T13:16:54.545Z,100.00
2022-12-27T13:19:46.293Z,100.00
2022-12-27T13:22:40.826Z,100.00
2022-12-27T13:25:37.727Z,100.00
2022-12-27T13:28:19.720Z,100.00
2022-12-27T13:30:56.497Z,100.00
2022-12-27T13:33:30.464Z,100.00
2022-12-27T13:36:06.919Z,100.00
2022-12-27T13:39:09.175Z,100.00
2022-12-27T13:41:54.405Z,100.00
2022-12-27T13:44:31.734Z,100.00
2022-12-27T13:47:04.466Z,100.00
2022-12-27T13:49:59.691Z,100.00
2022-12-27T13:52:47.229Z,100.00
2022-12-27T13:55:51.335Z,100.00
2022-12-27T13:58:27.427Z,100.00
2022-12-27T14:01:19.586Z,100.00
2022-12-27T14:04:05.491Z,100.00
2022-12-27T14:06:44.212Z,100.00
2022-12-27T14:09:34.068Z,100.00
2022-12-27T14:12:18.750Z,100.00
2022-12-27T14:14:45.418Z,100.00
2022-12-27T14:17:31.309Z,100.00
2022-12-27T14:19:57.939Z,100.00
2022-12-27T14:22:33.448Z,100.00
2022-12-27T14:25:30.903Z,100.00
2022-12-27T14:28:03.591Z,100.00
2022-12-27T14:30:54.332Z,100.00
2022-12-27T14:33:32.990Z,100.00
2022-12-27T14:36:16.445Z,100.00
2022-12-27T14:38:46.133Z,100.00
2022-12-27T14:41:49.344Z,100.00
2022-12-27T14:44:34.747Z,100.00
2022-12-27T14:47:44.895Z,100.00
2022-12-27T14:50:39.984Z,100.00
2022-12-27T14:53:10.905Z,100.00
2022-12-27T14:55:56.382Z,100.00
2022-12-27T14:58:47.234Z,100.00
2022-12-27T15:01:25.996Z,100.00
2022-12-27T15:04:13.584Z,100.00
2022-12-27T15:07:09.935Z,100.00
2022-12-27T15:09:52.607Z,100.00
2022-12-27T15:12:39.692Z,100.00
2022-12-27T15:15:27.557Z,100.00
2022-12-27T15:18:09.174Z,100.00
2022-12-27T15:20:38.807Z,100.00
2022-12-27T15:23:24.910Z,100.00
2022-12-27T15:25:54.910Z,100.00
2022-12-27T15:28:24.650Z,100.00
2022-12-27T15:31:06.840Z,100.00
2022-12-27T15:33:46.952Z,100.00
2022-12-27T15:36:17.788Z,100.00
2022-12-27T15:38:54.548Z,100.00
2022-12-27T15:41:30.761Z,100.00
2022-12-27T15:44:29.240Z,100.00
2022-12-27T15:46:59.033Z,100.00
2022-12-27T15:49:31.863Z,100.00
2022-12-27T15:52:03.821Z,100.00
2022-12-27T15:55:07.631Z,99.48
2022-12-27T15:57:53.010Z,98.47
2022-12-27T16:00:22.785Z,98.46
2022-12-27T16:02:51.093Z,98.31
2022-12-27T16:05:21.893Z,98.07
2022-12-27T16:08:18.836Z,97.91
2022-12-27T16:10:45.858Z,97.78
2022-12-27T16:13:21.968Z,97.72
2022-12-27T16:15:51.943Z,97.55
2022-12-27T16:18:21.778Z,98.00
2022-12-27T16:21:02.480Z,97.76
2022-12-27T16:23:33.179Z,97.73
2022-12-27T16:26:12.944Z,97.52
2022-12-27T16:28:39.646Z,97.47
2022-12-27T16:31:07.807Z,97.37
2022-12-27T16:33:43.560Z,96.81
2022-12-27T16:36:16.231Z,95.33
2022-12-27T16:38:46.408Z,94.91
2022-12-27T16:41:25.922Z,93.82
2022-12-27T16:44:01.753Z,93.08
2022-12-27T16:46:56.921Z,93.14
2022-12-27T16:49:29.743Z,92.74
2022-12-27T16:52:23.916Z,92.38
2022-12-27T16:55:25.962Z,91.86
2022-12-27T16:57:53.518Z,92.17
2022-12-27T17:00:37.361Z,92.22
2022-12-27T17:03:31.697Z,92.51
2022-12-27T17:06:30.538Z,92.44
2022-12-27T17:08:48.362Z,92.82
2022-12-27T17:11:15.045Z,92.92
2022-12-27T17:13:49.953Z,92.91
2022-12-27T17:16:23.293Z,92.66
2022-12-27T17:19:04.330Z,92.52
2022-12-27T17:21:38.065Z,92.94
2022-12-27T17:24:23.019Z,92.50
2022-12-27T17:27:31.480Z,92.57
2022-12-27T17:30:05.371Z,92.38
2022-12-27T17:32:42.027Z,92.39
2022-12-27T17:35:14.975Z,92.56
2022-12-27T17:38:14.283Z,92.88
2022-12-27T17:41:16.314Z,92.81
2022-12-27T17:44:24.174Z,92.26
2022-12-27T17:47:28.825Z,92.55
2022-12-27T17:49:59.383Z,92.15
2022-12-27T17:52:44.747Z,92.20
2022-12-27T17:55:38.797Z,92.61
2022-12-27T17:58:08.016Z,92.41
2022-12-27T18:00:36.915Z,92.30
2022-12-27T18:03:07.599Z,92.33
2022-12-27T18:05:36.884Z,92.31
2022-12-27T18:08:05.754Z,92.07
2022-12-27T18:10:34.333Z,92.04
2022-12-27T18:13:03.052Z,91.86
2022-12-27T18:15:32.274Z,91.59
2022-12-27T18:18:00.332Z,91.16
2022-12-27T18:20:31.119Z,91.47
2022-12-27T18:23:00.944Z,91.45
2022-12-27T18:25:28.884Z,91.43
2022-12-27T18:28:33.884Z,91.39
2022-12-27T18:31:09.229Z,91.65
2022-12-27T18:34:00.768Z,91.71
2022-12-27T18:36:34.459Z,91.39
2022-12-27T18:39:05.516Z,90.88
2022-12-27T18:41:50.635Z,90.96
2022-12-27T18:44:27.049Z,90.51
2022-12-27T18:46:55.928Z,90.42
2022-12-27T18:49:26.584Z,90.67
2022-12-27T18:51:55.036Z,90.79
2022-12-27T18:54:31.050Z,90.96
2022-12-27T18:56:59.099Z,90.71
2022-12-27T18:59:28.807Z,90.53
2022-12-27T19:02:01.433Z,90.10
2022-12-27T19:04:32.119Z,90.31
2022-12-27T19:07:12.623Z,90.35
2022-12-27T19:09:48.406Z,90.29
2022-12-27T19:12:35.212Z,90.15
2022-12-27T19:15:01.939Z,90.13
2022-12-27T19:17:30.561Z,90.22
2022-12-27T19:20:07.011Z,90.27
2022-12-27T19:22:45.854Z,90.19
2022-12-27T19:25:25.726Z,90.00
2022-12-27T19:28:04.241Z,89.60
2022-12-27T19:30:38.674Z,89.60
2022-12-27T19:33:08.339Z,89.18
2022-12-27T19:35:35.363Z,89.41
2022-12-27T19:38:02.252Z,89.37
2022-12-27T19:40:28.904Z,89.38
2022-12-27T19:42:55.621Z,89.45
2022-12-27T19:45:22.380Z,89.23
2022-12-27T19:47:49.304Z,88.98
2022-12-27T19:50:16.703Z,89.07
2022-12-27T19:52:43.445Z,88.96
2022-12-27T19:55:12.987Z,88.51
2022-12-27T19:57:40.598Z,88.52
2022-12-27T20:00:16.683Z,88.67
2022-12-27T20:02:43.477Z,88.48
2022-12-27T20:05:10.262Z,88.28
2022-12-27T20:07:37.190Z,88.27
2022-12-27T20:10:04.297Z,88.09
2022-12-27T20:12:31.210Z,87.79
2022-12-27T20:14:58.053Z,87.28
2022-12-27T20:17:24.658Z,87.28
2022-12-27T20:19:51.702Z,87.15
2022-12-27T20:22:18.493Z,87.32
2022-12-27T20:24:47.173Z,87.11
2022-12-27T20:27:13.929Z,87.15
2022-12-27T20:29:40.636Z,87.08
2022-12-27T20:32:07.476Z,86.93
2022-12-27T20:34:34.099Z,86.76
2022-12-27T20:37:00.828Z,86.71
2022-12-27T20:39:27.551Z,86.72
2022-12-27T20:41:55.927Z,86.78
2022-12-27T20:44:22.733Z,86.75
2022-12-27T20:46:50.665Z,86.67
2022-12-27T20:49:17.447Z,86.67
2022-12-27T20:51:44.094Z,86.59
2022-12-27T20:54:12.812Z,86.75
2022-12-27T20:56:39.539Z,86.89
2022-12-27T20:59:06.423Z,86.74
2022-12-27T21:01:33.156Z,86.70
2022-12-27T21:03:59.856Z,87.00
2022-12-27T21:06:27.686Z,87.00
2022-12-27T21:08:57.647Z,87.12
2022-12-27T21:11:27.075Z,87.14
2022-12-27T21:13:54.066Z,87.21
2022-12-27T21:16:24.598Z,87.04
2022-12-27T21:18:51.414Z,87.10
2022-12-27T21:21:20.517Z,87.02
2022-12-27T21:23:47.557Z,86.87
2022-12-27T21:26:16.818Z,87.18
2022-12-27T21:28:44.248Z,87.21
2022-12-27T21:31:11.480Z,87.19
2022-12-27T21:33:38.613Z,87.23
2022-12-27T21:36:06.821Z,87.33
2022-12-27T21:38:33.764Z,87.25
2022-12-27T21:41:20.261Z,87.43
2022-12-27T21:43:47.462Z,87.18
2022-12-27T21:46:20.145Z,87.29
2022-12-27T21:48:47.503Z,87.24
2022-12-27T21:51:17.038Z,87.25
2022-12-27T21:53:43.849Z,87.29
2022-12-27T21:56:11.179Z,87.35
2022-12-27T21:58:38.788Z,87.13
2022-12-27T22:01:08.849Z,87.11
2022-12-27T22:03:37.946Z,87.10
2022-12-27T22:08:43.996Z,86.98
2022-12-27T22:11:10.895Z,87.12
2022-12-27T22:13:37.636Z,87.13
2022-12-27T22:16:06.118Z,87.24
2022-12-27T22:18:36.354Z,87.15
2022-12-27T22:21:06.420Z,87.18
2022-12-27T22:23:33.824Z,87.14
2022-12-27T22:26:00.585Z,87.14
2022-12-27T22:28:27.498Z,87.44
2022-12-27T22:30:54.482Z,87.49
2022-12-27T22:33:21.291Z,87.62
2022-12-27T22:35:47.964Z,87.73
2022-12-27T22:38:14.750Z,87.77
2022-12-27T22:40:46.289Z,87.69
2022-12-27T22:43:14.005Z,87.63
2022-12-27T22:45:41.373Z,87.83
2022-12-27T22:48:08.104Z,87.92
2022-12-27T22:50:34.775Z,88.26
2022-12-27T22:53:01.497Z,88.20
2022-12-27T22:55:28.207Z,88.30
2022-12-27T22:57:54.956Z,88.12
2022-12-27T23:00:21.599Z,88.19
2022-12-27T23:02:48.388Z,88.25
2022-12-27T23:05:15.128Z,88.27
2022-12-27T23:08:05.184Z,88.35
2022-12-27T23:10:28.575Z,88.52
2022-12-27T23:12:56.553Z,88.45
2022-12-27T23:15:23.224Z,88.59
2022-12-27T23:17:49.971Z,88.40
2022-12-27T23:20:16.799Z,88.46
2022-12-27T23:22:43.519Z,88.47
2022-12-27T23:25:10.153Z,88.43
2022-12-27T23:27:36.877Z,88.40
2022-12-27T23:30:04.055Z,88.49
2022-12-27T23:32:30.787Z,88.47
2022-12-27T23:34:57.537Z,88.47
2022-12-27T23:37:24.230Z,88.49
2022-12-27T23:39:51.232Z,88.57
2022-12-27T23:42:17.961Z,88.57
2022-12-27T23:44:44.652Z,88.44
2022-12-27T23:47:11.428Z,88.41
2022-12-27T23:49:38.111Z,88.46
2022-12-27T23:52:05.116Z,88.24
2022-12-27T23:54:31.893Z,88.22
2022-12-27T23:56:58.586Z,88.29
2022-12-27T23:59:45.541Z,88.29
